sensor_id;sensor_type;location;lat;lon;timestamp;pressure;altitude;pressure_sealevel;temperature;humidity
66164;BME280;52962;51.088;3.096;2023-04-22T00:01:57;100534.25;;;8.01;nan
66164;BME280;52962;51.088;3.096;2023-04-22T00:04:25;100532.50;;;8.02;nan
66164;BME280;52962;51.088;3.096;2023-04-22T00:06:53;100519.31;;;7.99;nan
66164;BME280;52962;51.088;3.096;2023-04-22T00:09:21;100523.09;;;8.10;nan
66164;BME280;52962;51.088;3.096;2023-04-22T00:11:50;100526.81;;;8.18;nan
66164;BME280;52962;51.088;3.096;2023-04-22T00:14:19;100518.91;;;8.16;nan
66164;BME280;52962;51.088;3.096;2023-04-22T00:16:47;100520.72;;;8.19;nan
66164;BME280;52962;51.088;3.096;2023-04-22T00:19:15;100522.53;;;8.22;nan
66164;BME280;52962;51.088;3.096;2023-04-22T00:21:43;100526.56;;;8.09;nan
66164;BME280;52962;51.088;3.096;2023-04-22T00:24:11;100529.09;;;8.04;nan
66164;BME280;52962;51.088;3.096;2023-04-22T00:26:39;100527.22;;;8.00;nan
66164;BME280;52962;51.088;3.096;2023-04-22T00:29:07;100532.19;;;7.90;nan
66164;BME280;52962;51.088;3.096;2023-04-22T00:31:37;100532.03;;;7.83;nan
66164;BME280;52962;51.088;3.096;2023-04-22T00:34:05;100531.22;;;7.86;nan
66164;BME280;52962;51.088;3.096;2023-04-22T00:36:33;100513.88;;;7.91;nan
66164;BME280;52962;51.088;3.096;2023-04-22T00:39:01;100514.97;;;7.99;nan
66164;BME280;52962;51.088;3.096;2023-04-22T00:41:30;100514.16;;;8.02;nan
66164;BME280;52962;51.088;3.096;2023-04-22T00:43:59;100511.50;;;8.00;nan
66164;BME280;52962;51.088;3.096;2023-04-22T00:46:27;100513.22;;;8.00;nan
66164;BME280;52962;51.088;3.096;2023-04-22T00:48:57;100516.34;;;7.85;nan
66164;BME280;52962;51.088;3.096;2023-04-22T00:51:25;100507.06;;;7.98;nan
66164;BME280;52962;51.088;3.096;2023-04-22T00:53:54;100510.69;;;8.03;nan
66164;BME280;52962;51.088;3.096;2023-04-22T00:56:23;100509.81;;;8.02;nan
66164;BME280;52962;51.088;3.096;2023-04-22T00:58:52;100510.84;;;8.09;nan
66164;BME280;52962;51.088;3.096;2023-04-22T01:01:21;100502.16;;;8.11;nan
66164;BME280;52962;51.088;3.096;2023-04-22T01:03:50;100502.19;;;8.13;nan
66164;BME280;52962;51.088;3.096;2023-04-22T01:06:21;100504.00;;;8.15;nan
66164;BME280;52962;51.088;3.096;2023-04-22T01:08:52;100502.28;;;8.16;nan
66164;BME280;52962;51.088;3.096;2023-04-22T01:11:20;100497.03;;;8.16;nan
66164;BME280;52962;51.088;3.096;2023-04-22T01:13:49;100493.50;;;8.14;nan
66164;BME280;52962;51.088;3.096;2023-04-22T01:16:17;100496.16;;;8.15;nan
66164;BME280;52962;51.088;3.096;2023-04-22T01:18:45;100490.72;;;8.08;nan
66164;BME280;52962;51.088;3.096;2023-04-22T01:21:13;100485.47;;;8.08;nan
66164;BME280;52962;51.088;3.096;2023-04-22T01:23:44;100488.09;;;8.08;nan
66164;BME280;52962;51.088;3.096;2023-04-22T01:26:12;100479.28;;;8.06;nan
66164;BME280;52962;51.088;3.096;2023-04-22T01:28:40;100481.69;;;7.97;nan
66164;BME280;52962;51.088;3.096;2023-04-22T01:31:08;100485.72;;;7.84;nan
66164;BME280;52962;51.088;3.096;2023-04-22T01:33:36;100495.38;;;7.85;nan
66164;BME280;52962;51.088;3.096;2023-04-22T01:36:05;100489.16;;;7.81;nan
66164;BME280;52962;51.088;3.096;2023-04-22T01:38:33;100491.88;;;7.84;nan
66164;BME280;52962;51.088;3.096;2023-04-22T01:41:04;100488.59;;;7.93;nan
66164;BME280;52962;51.088;3.096;2023-04-22T01:43:32;100486.09;;;7.98;nan
66164;BME280;52962;51.088;3.096;2023-04-22T01:46:03;100484.38;;;8.00;nan
66164;BME280;52962;51.088;3.096;2023-04-22T01:48:33;100481.66;;;7.95;nan
66164;BME280;52962;51.088;3.096;2023-04-22T01:51:01;100491.25;;;7.95;nan
66164;BME280;52962;51.088;3.096;2023-04-22T01:53:30;100486.97;;;7.98;nan
66164;BME280;52962;51.088;3.096;2023-04-22T01:55:58;100485.19;;;7.97;nan
66164;BME280;52962;51.088;3.096;2023-04-22T01:58:29;100489.50;;;7.95;nan
66164;BME280;52962;51.088;3.096;2023-04-22T02:00:57;100493.75;;;7.90;nan
66164;BME280;52962;51.088;3.096;2023-04-22T02:03:25;100488.63;;;7.95;nan
66164;BME280;52962;51.088;3.096;2023-04-22T02:05:54;100486.00;;;7.95;nan
66164;BME280;52962;51.088;3.096;2023-04-22T02:08:22;100468.66;;;8.00;nan
66164;BME280;52962;51.088;3.096;2023-04-22T02:10:50;100473.09;;;8.02;nan
66164;BME280;52962;51.088;3.096;2023-04-22T02:13:19;100476.59;;;8.03;nan
66164;BME280;52962;51.088;3.096;2023-04-22T02:15:48;100472.16;;;8.00;nan
66164;BME280;52962;51.088;3.096;2023-04-22T02:18:17;100464.31;;;8.00;nan
66164;BME280;52962;51.088;3.096;2023-04-22T02:20:45;100464.25;;;7.99;nan
66164;BME280;52962;51.088;3.096;2023-04-22T02:23:13;100463.34;;;7.97;nan
66164;BME280;52962;51.088;3.096;2023-04-22T02:25:47;100458.88;;;7.93;nan
66164;BME280;52962;51.088;3.096;2023-04-22T02:28:17;100469.25;;;7.88;nan
66164;BME280;52962;51.088;3.096;2023-04-22T02:30:45;100468.19;;;7.81;nan
66164;BME280;52962;51.088;3.096;2023-04-22T02:33:14;100466.25;;;7.74;nan
66164;BME280;52962;51.088;3.096;2023-04-22T02:35:43;100467.19;;;7.76;nan
66164;BME280;52962;51.088;3.096;2023-04-22T02:38:16;100454.16;;;7.79;nan
66164;BME280;52962;51.088;3.096;2023-04-22T02:40:44;100454.25;;;7.82;nan
66164;BME280;52962;51.088;3.096;2023-04-22T02:43:12;100469.97;;;7.82;nan
66164;BME280;52962;51.088;3.096;2023-04-22T02:45:41;100463.03;;;7.84;nan
66164;BME280;52962;51.088;3.096;2023-04-22T02:48:09;100470.91;;;7.84;nan
66164;BME280;52962;51.088;3.096;2023-04-22T02:50:38;100460.38;;;7.83;nan
66164;BME280;52962;51.088;3.096;2023-04-22T02:53:07;100463.72;;;7.77;nan
66164;BME280;52962;51.088;3.096;2023-04-22T02:55:35;100459.00;;;7.64;nan
66164;BME280;52962;51.088;3.096;2023-04-22T02:58:03;100464.28;;;7.66;nan
66164;BME280;52962;51.088;3.096;2023-04-22T03:00:31;100463.38;;;7.64;nan
66164;BME280;52962;51.088;3.096;2023-04-22T03:02:59;100452.91;;;7.65;nan
66164;BME280;52962;51.088;3.096;2023-04-22T03:05:31;100439.91;;;7.68;nan
66164;BME280;52962;51.088;3.096;2023-04-22T03:08:02;100448.66;;;7.69;nan
66164;BME280;52962;51.088;3.096;2023-04-22T03:10:30;100441.75;;;7.72;nan
66164;BME280;52962;51.088;3.096;2023-04-22T03:12:59;100445.22;;;7.71;nan
66164;BME280;52962;51.088;3.096;2023-04-22T03:15:27;100437.50;;;7.77;nan
66164;BME280;52962;51.088;3.096;2023-04-22T03:17:55;100435.75;;;7.76;nan
66164;BME280;52962;51.088;3.096;2023-04-22T03:20:24;100427.06;;;7.79;nan
66164;BME280;52962;51.088;3.096;2023-04-22T03:22:52;100432.41;;;7.83;nan
66164;BME280;52962;51.088;3.096;2023-04-22T03:25:22;100426.19;;;7.78;nan
66164;BME280;52962;51.088;3.096;2023-04-22T03:27:53;100424.47;;;7.80;nan
66164;BME280;52962;51.088;3.096;2023-04-22T03:30:22;100419.22;;;7.80;nan
66164;BME280;52962;51.088;3.096;2023-04-22T03:32:51;100414.88;;;7.81;nan
66164;BME280;52962;51.088;3.096;2023-04-22T03:35:24;100410.44;;;7.78;nan
66164;BME280;52962;51.088;3.096;2023-04-22T03:37:55;100410.38;;;7.75;nan
66164;BME280;52962;51.088;3.096;2023-04-22T03:40:30;100401.53;;;7.72;nan
66164;BME280;52962;51.088;3.096;2023-04-22T03:43:00;100398.06;;;7.73;nan
66164;BME280;52962;51.088;3.096;2023-04-22T03:45:30;100392.06;;;7.77;nan
66164;BME280;52962;51.088;3.096;2023-04-22T03:48:12;100399.00;;;7.75;nan
66164;BME280;52962;51.088;3.096;2023-04-22T03:50:46;100405.06;;;7.72;nan
66164;BME280;52962;51.088;3.096;2023-04-22T03:53:15;100399.81;;;7.72;nan
66164;BME280;52962;51.088;3.096;2023-04-22T03:55:45;100404.06;;;7.67;nan
66164;BME280;52962;51.088;3.096;2023-04-22T03:58:14;100401.59;;;7.73;nan
66164;BME280;52962;51.088;3.096;2023-04-22T04:00:43;100390.19;;;7.71;nan
66164;BME280;52962;51.088;3.096;2023-04-22T04:03:15;100393.69;;;7.72;nan
66164;BME280;52962;51.088;3.096;2023-04-22T04:05:46;100396.50;;;7.79;nan
66164;BME280;52962;51.088;3.096;2023-04-22T04:08:14;100386.94;;;7.81;nan
66164;BME280;52962;51.088;3.096;2023-04-22T04:10:44;100390.22;;;7.73;nan
66164;BME280;52962;51.088;3.096;2023-04-22T04:13:14;100386.16;;;7.85;nan
66164;BME280;52962;51.088;3.096;2023-04-22T04:16:00;100374.81;;;7.86;nan
66164;BME280;52962;51.088;3.096;2023-04-22T04:18:31;100380.91;;;7.85;nan
66164;BME280;52962;51.088;3.096;2023-04-22T04:20:59;100384.25;;;7.78;nan
66164;BME280;52962;51.088;3.096;2023-04-22T04:23:30;100382.50;;;7.79;nan
66164;BME280;52962;51.088;3.096;2023-04-22T04:26:01;100378.97;;;7.77;nan
66164;BME280;52962;51.088;3.096;2023-04-22T04:28:34;100369.34;;;7.77;nan
66164;BME280;52962;51.088;3.096;2023-04-22T04:31:03;100372.78;;;7.75;nan
66164;BME280;52962;51.088;3.096;2023-04-22T04:33:31;100366.75;;;7.77;nan
66164;BME280;52962;51.088;3.096;2023-04-22T04:35:59;100378.03;;;7.75;nan
66164;BME280;52962;51.088;3.096;2023-04-22T04:38:32;100379.00;;;7.78;nan
66164;BME280;52962;51.088;3.096;2023-04-22T04:41:01;100379.00;;;7.78;nan
66164;BME280;52962;51.088;3.096;2023-04-22T04:43:30;100372.13;;;7.83;nan
66164;BME280;52962;51.088;3.096;2023-04-22T04:46:08;100373.88;;;7.83;nan
66164;BME280;52962;51.088;3.096;2023-04-22T04:48:37;100364.31;;;7.85;nan
66164;BME280;52962;51.088;3.096;2023-04-22T04:51:07;100360.88;;;7.87;nan
66164;BME280;52962;51.088;3.096;2023-04-22T04:53:41;100353.88;;;7.88;nan
66164;BME280;52962;51.088;3.096;2023-04-22T04:56:11;100349.53;;;7.88;nan
66164;BME280;52962;51.088;3.096;2023-04-22T04:58:40;100354.00;;;7.93;nan
66164;BME280;52962;51.088;3.096;2023-04-22T05:01:14;100351.44;;;7.96;nan
66164;BME280;52962;51.088;3.096;2023-04-22T05:03:44;100351.50;;;7.99;nan
66164;BME280;52962;51.088;3.096;2023-04-22T05:06:15;100338.41;;;7.99;nan
66164;BME280;52962;51.088;3.096;2023-04-22T05:08:58;100333.94;;;7.95;nan
66164;BME280;52962;51.088;3.096;2023-04-22T05:11:28;100336.56;;;7.95;nan
66164;BME280;52962;51.088;3.096;2023-04-22T05:13:58;100337.41;;;7.94;nan
66164;BME280;52962;51.088;3.096;2023-04-22T05:16:33;100342.66;;;7.94;nan
66164;BME280;52962;51.088;3.096;2023-04-22T05:19:02;100347.00;;;7.93;nan
66164;BME280;52962;51.088;3.096;2023-04-22T05:21:32;100346.19;;;7.96;nan
66164;BME280;52962;51.088;3.096;2023-04-22T05:24:00;100348.81;;;7.96;nan
66164;BME280;52962;51.088;3.096;2023-04-22T05:26:30;100340.88;;;7.93;nan
66164;BME280;52962;51.088;3.096;2023-04-22T05:29:00;100339.94;;;7.89;nan
66164;BME280;52962;51.088;3.096;2023-04-22T05:31:28;100338.28;;;7.94;nan
66164;BME280;52962;51.088;3.096;2023-04-22T05:33:56;100335.69;;;7.94;nan
66164;BME280;52962;51.088;3.096;2023-04-22T05:36:24;100335.78;;;7.99;nan
66164;BME280;52962;51.088;3.096;2023-04-22T05:38:57;100339.31;;;8.01;nan
66164;BME280;52962;51.088;3.096;2023-04-22T05:41:27;100341.16;;;8.05;nan
66164;BME280;52962;51.088;3.096;2023-04-22T05:43:58;100331.56;;;8.05;nan
66164;BME280;52962;51.088;3.096;2023-04-22T05:46:27;100343.00;;;8.09;nan
66164;BME280;52962;51.088;3.096;2023-04-22T05:48:56;100344.00;;;8.14;nan
66164;BME280;52962;51.088;3.096;2023-04-22T05:51:44;100341.44;;;8.17;nan
66164;BME280;52962;51.088;3.096;2023-04-22T05:54:16;100338.00;;;8.19;nan
66164;BME280;52962;51.088;3.096;2023-04-22T05:56:44;100344.22;;;8.25;nan
66164;BME280;52962;51.088;3.096;2023-04-22T05:59:14;100339.81;;;8.22;nan
66164;BME280;52962;51.088;3.096;2023-04-22T06:01:44;100349.56;;;8.29;nan
66164;BME280;52962;51.088;3.096;2023-04-22T06:04:17;100349.59;;;8.32;nan
66164;BME280;52962;51.088;3.096;2023-04-22T06:06:45;100356.69;;;8.35;nan
66164;BME280;52962;51.088;3.096;2023-04-22T06:09:14;100358.72;;;8.48;nan
66164;BME280;52962;51.088;3.096;2023-04-22T06:11:42;100366.63;;;8.49;nan
66164;BME280;52962;51.088;3.096;2023-04-22T06:14:10;100372.19;;;8.65;nan
66164;BME280;52962;51.088;3.096;2023-04-22T06:16:42;100363.66;;;8.75;nan
66164;BME280;52962;51.088;3.096;2023-04-22T06:19:11;100350.59;;;8.78;nan
66164;BME280;52962;51.088;3.096;2023-04-22T06:21:39;100348.97;;;8.84;nan
66164;BME280;52962;51.088;3.096;2023-04-22T06:24:08;100343.72;;;8.84;nan
66164;BME280;52962;51.088;3.096;2023-04-22T06:26:36;100338.56;;;8.89;nan
66164;BME280;52962;51.088;3.096;2023-04-22T06:29:05;100342.13;;;8.93;nan
66164;BME280;52962;51.088;3.096;2023-04-22T06:31:35;100349.16;;;8.94;nan
66164;BME280;52962;51.088;3.096;2023-04-22T06:34:04;100346.56;;;8.95;nan
66164;BME280;52962;51.088;3.096;2023-04-22T06:36:33;100340.47;;;8.98;nan
66164;BME280;52962;51.088;3.096;2023-04-22T06:39:04;100347.53;;;9.00;nan
66164;BME280;52962;51.088;3.096;2023-04-22T06:41:33;100334.34;;;8.97;nan
66164;BME280;52962;51.088;3.096;2023-04-22T06:44:09;100335.34;;;9.04;nan
66164;BME280;52962;51.088;3.096;2023-04-22T06:46:42;100346.91;;;9.13;nan
66164;BME280;52962;51.088;3.096;2023-04-22T06:49:21;100344.41;;;9.21;nan
66164;BME280;52962;51.088;3.096;2023-04-22T06:52:08;100335.03;;;9.35;nan
66164;BME280;52962;51.088;3.096;2023-04-22T06:54:36;100341.34;;;9.48;nan
66164;BME280;52962;51.088;3.096;2023-04-22T06:57:05;100343.22;;;9.55;nan
66164;BME280;52962;51.088;3.096;2023-04-22T06:59:33;100326.56;;;9.56;nan
66164;BME280;52962;51.088;3.096;2023-04-22T07:02:02;100333.69;;;9.63;nan
66164;BME280;52962;51.088;3.096;2023-04-22T07:04:37;100339.00;;;9.66;nan
66164;BME280;52962;51.088;3.096;2023-04-22T07:07:06;100345.31;;;9.76;nan
66164;BME280;52962;51.088;3.096;2023-04-22T07:09:35;100342.81;;;9.85;nan
66164;BME280;52962;51.088;3.096;2023-04-22T07:12:04;100336.66;;;9.84;nan
66164;BME280;52962;51.088;3.096;2023-04-22T07:14:32;100342.94;;;9.93;nan
66164;BME280;52962;51.088;3.096;2023-04-22T07:17:00;100337.75;;;9.99;nan
66164;BME280;52962;51.088;3.096;2023-04-22T07:19:28;100336.06;;;10.02;nan
66164;BME280;52962;51.088;3.096;2023-04-22T07:22:01;100331.00;;;10.16;nan
66164;BME280;52962;51.088;3.096;2023-04-22T07:24:29;100337.25;;;10.23;nan
66164;BME280;52962;51.088;3.096;2023-04-22T07:26:57;100337.28;;;10.24;nan
66164;BME280;52962;51.088;3.096;2023-04-22T07:29:25;100338.16;;;10.25;nan
66164;BME280;52962;51.088;3.096;2023-04-22T07:31:53;100335.72;;;10.38;nan
66164;BME280;52962;51.088;3.096;2023-04-22T07:34:21;100335.00;;;10.53;nan
66164;BME280;52962;51.088;3.096;2023-04-22T07:36:50;100326.38;;;10.66;nan
66164;BME280;52962;51.088;3.096;2023-04-22T07:39:21;100319.41;;;10.70;nan
66164;BME280;52962;51.088;3.096;2023-04-22T07:41:49;100322.00;;;10.68;nan
66164;BME280;52962;51.088;3.096;2023-04-22T07:44:18;100319.31;;;10.64;nan
66164;BME280;52962;51.088;3.096;2023-04-22T07:46:48;100316.63;;;10.58;nan
66164;BME280;52962;51.088;3.096;2023-04-22T07:49:16;100306.94;;;10.55;nan
66164;BME280;52962;51.088;3.096;2023-04-22T07:51:44;100299.03;;;10.54;nan
66164;BME280;52962;51.088;3.096;2023-04-22T07:54:12;100289.41;;;10.57;nan
66164;BME280;52962;51.088;3.096;2023-04-22T07:56:42;100288.69;;;10.70;nan
66164;BME280;52962;51.088;3.096;2023-04-22T07:59:10;100295.78;;;10.77;nan
66164;BME280;52962;51.088;3.096;2023-04-22T08:01:38;100289.63;;;10.77;nan
66164;BME280;52962;51.088;3.096;2023-04-22T08:04:06;100300.97;;;10.71;nan
66164;BME280;52962;51.088;3.096;2023-04-22T08:06:35;100305.41;;;10.74;nan
66164;BME280;52962;51.088;3.096;2023-04-22T08:09:03;100328.25;;;10.75;nan
66164;BME280;52962;51.088;3.096;2023-04-22T08:11:31;100351.81;;;10.66;nan
66164;BME280;52962;51.088;3.096;2023-04-22T08:14:01;100356.31;;;10.74;nan
66164;BME280;52962;51.088;3.096;2023-04-22T08:16:29;100366.84;;;10.74;nan
66164;BME280;52962;51.088;3.096;2023-04-22T08:18:57;100373.84;;;10.72;nan
66164;BME280;52962;51.088;3.096;2023-04-22T08:21:25;100387.00;;;10.71;nan
66164;BME280;52962;51.088;3.096;2023-04-22T08:23:53;100384.44;;;10.77;nan
66164;BME280;52962;51.088;3.096;2023-04-22T08:26:22;100404.66;;;10.78;nan
66164;BME280;52962;51.088;3.096;2023-04-22T08:28:50;100407.31;;;10.81;nan
66164;BME280;52962;51.088;3.096;2023-04-22T08:31:19;100410.91;;;10.86;nan
66164;BME280;52962;51.088;3.096;2023-04-22T08:33:47;100405.75;;;10.95;nan
66164;BME280;52962;51.088;3.096;2023-04-22T08:36:16;100404.84;;;10.95;nan
66164;BME280;52962;51.088;3.096;2023-04-22T08:38:45;100413.69;;;10.98;nan
66164;BME280;52962;51.088;3.096;2023-04-22T08:41:16;100412.69;;;10.90;nan
66164;BME280;52962;51.088;3.096;2023-04-22T08:43:45;100418.94;;;10.97;nan
66164;BME280;52962;51.088;3.096;2023-04-22T08:46:13;100417.06;;;10.88;nan
66164;BME280;52962;51.088;3.096;2023-04-22T08:48:44;100414.44;;;10.90;nan
66164;BME280;52962;51.088;3.096;2023-04-22T08:51:14;100417.06;;;10.87;nan
66164;BME280;52962;51.088;3.096;2023-04-22T08:53:43;100411.00;;;10.94;nan
66164;BME280;52962;51.088;3.096;2023-04-22T08:56:11;100410.16;;;10.98;nan
66164;BME280;52962;51.088;3.096;2023-04-22T08:58:40;100405.81;;;11.00;nan
66164;BME280;52962;51.088;3.096;2023-04-22T09:01:09;100411.94;;;10.99;nan
66164;BME280;52962;51.088;3.096;2023-04-22T09:03:38;100397.63;;;10.78;nan
66164;BME280;52962;51.088;3.096;2023-04-22T09:06:09;100383.69;;;10.87;nan
66164;BME280;52962;51.088;3.096;2023-04-22T09:08:37;100381.22;;;11.01;nan
66164;BME280;52962;51.088;3.096;2023-04-22T09:11:06;100388.19;;;10.96;nan
66164;BME280;52962;51.088;3.096;2023-04-22T09:13:34;100375.88;;;10.95;nan
66164;BME280;52962;51.088;3.096;2023-04-22T09:16:02;100372.47;;;11.03;nan
66164;BME280;52962;51.088;3.096;2023-04-22T09:18:38;100373.28;;;10.99;nan
66164;BME280;52962;51.088;3.096;2023-04-22T09:21:07;100363.56;;;10.92;nan
66164;BME280;52962;51.088;3.096;2023-04-22T09:23:44;100368.81;;;10.91;nan
66164;BME280;52962;51.088;3.096;2023-04-22T09:26:12;100353.84;;;10.87;nan
66164;BME280;52962;51.088;3.096;2023-04-22T09:28:48;100356.44;;;10.85;nan
66164;BME280;52962;51.088;3.096;2023-04-22T09:31:16;100340.81;;;11.00;nan
66164;BME280;52962;51.088;3.096;2023-04-22T09:33:49;100329.47;;;11.06;nan
66164;BME280;52962;51.088;3.096;2023-04-22T09:36:22;100326.03;;;11.14;nan
66164;BME280;52962;51.088;3.096;2023-04-22T09:38:51;100319.97;;;11.23;nan
66164;BME280;52962;51.088;3.096;2023-04-22T09:41:27;100312.09;;;11.28;nan
66164;BME280;52962;51.088;3.096;2023-04-22T09:43:57;100301.66;;;11.38;nan
66164;BME280;52962;51.088;3.096;2023-04-22T09:46:27;100303.41;;;11.39;nan
66164;BME280;52962;51.088;3.096;2023-04-22T09:48:57;100293.78;;;11.43;nan
66164;BME280;52962;51.088;3.096;2023-04-22T09:51:27;100293.84;;;11.57;nan
66164;BME280;52962;51.088;3.096;2023-04-22T09:53:57;100294.94;;;11.82;nan
66164;BME280;52962;51.088;3.096;2023-04-22T09:56:48;100287.03;;;11.83;nan
66164;BME280;52962;51.088;3.096;2023-04-22T09:59:20;100298.41;;;11.76;nan
66164;BME280;52962;51.088;3.096;2023-04-22T10:01:50;100300.19;;;11.77;nan
66164;BME280;52962;51.088;3.096;2023-04-22T10:04:19;100294.94;;;11.78;nan
66164;BME280;52962;51.088;3.096;2023-04-22T10:06:51;100308.19;;;11.88;nan
66164;BME280;52962;51.088;3.096;2023-04-22T10:09:21;100309.00;;;11.77;nan
66164;BME280;52962;51.088;3.096;2023-04-22T10:11:51;100307.28;;;11.86;nan
66164;BME280;52962;51.088;3.096;2023-04-22T10:14:20;100288.81;;;11.87;nan
66164;BME280;52962;51.088;3.096;2023-04-22T10:16:49;100295.84;;;11.85;nan
66164;BME280;52962;51.088;3.096;2023-04-22T10:19:20;100298.44;;;11.79;nan
66164;BME280;52962;51.088;3.096;2023-04-22T10:21:52;100300.25;;;11.88;nan
66164;BME280;52962;51.088;3.096;2023-04-22T10:24:23;100292.38;;;11.94;nan
66164;BME280;52962;51.088;3.096;2023-04-22T10:26:54;100292.38;;;11.92;nan
66164;BME280;52962;51.088;3.096;2023-04-22T10:29:24;100295.06;;;12.00;nan
66164;BME280;52962;51.088;3.096;2023-04-22T10:31:54;100300.28;;;11.92;nan
66164;BME280;52962;51.088;3.096;2023-04-22T10:34:24;100326.63;;;11.83;nan
66164;BME280;52962;51.088;3.096;2023-04-22T10:36:55;100345.84;;;11.73;nan
66164;BME280;52962;51.088;3.096;2023-04-22T10:39:24;100337.00;;;11.65;nan
66164;BME280;52962;51.088;3.096;2023-04-22T10:41:56;100331.75;;;11.69;nan
66164;BME280;52962;51.088;3.096;2023-04-22T10:44:27;100335.28;;;11.70;nan
66164;BME280;52962;51.088;3.096;2023-04-22T10:47:00;100340.56;;;11.71;nan
66164;BME280;52962;51.088;3.096;2023-04-22T10:49:29;100353.84;;;11.77;nan
66164;BME280;52962;51.088;3.096;2023-04-22T10:52:00;100345.09;;;11.85;nan
66164;BME280;52962;51.088;3.096;2023-04-22T10:54:55;100335.53;;;12.00;nan
66164;BME280;52962;51.088;3.096;2023-04-22T10:57:32;100348.78;;;12.08;nan
66164;BME280;52962;51.088;3.096;2023-04-22T11:00:18;100355.81;;;12.09;nan
66164;BME280;52962;51.088;3.096;2023-04-22T11:02:53;100355.84;;;12.12;nan
66164;BME280;52962;51.088;3.096;2023-04-22T11:05:23;100355.06;;;12.27;nan
66164;BME280;52962;51.088;3.096;2023-04-22T11:07:57;100354.25;;;12.38;nan
66164;BME280;52962;51.088;3.096;2023-04-22T11:10:34;100356.00;;;12.39;nan
66164;BME280;52962;51.088;3.096;2023-04-22T11:13:04;100355.91;;;12.21;nan
66164;BME280;52962;51.088;3.096;2023-04-22T11:15:38;100359.50;;;12.35;nan
66164;BME280;52962;51.088;3.096;2023-04-22T11:18:11;100348.06;;;12.35;nan
66164;BME280;52962;51.088;3.096;2023-04-22T11:20:40;100354.22;;;12.34;nan
66164;BME280;52962;51.088;3.096;2023-04-22T11:23:10;100361.31;;;12.44;nan
66164;BME280;52962;51.088;3.096;2023-04-22T11:25:38;100352.50;;;12.48;nan
66164;BME280;52962;51.088;3.096;2023-04-22T11:28:06;100342.88;;;12.67;nan
66164;BME280;52962;51.088;3.096;2023-04-22T11:30:34;100358.81;;;12.88;nan
66164;BME280;52962;51.088;3.096;2023-04-22T11:33:02;100352.63;;;12.83;nan
66164;BME280;52962;51.088;3.096;2023-04-22T11:35:32;100353.53;;;12.88;nan
66164;BME280;52962;51.088;3.096;2023-04-22T11:38:02;100356.09;;;12.67;nan
66164;BME280;52962;51.088;3.096;2023-04-22T11:40:33;100349.06;;;12.69;nan
66164;BME280;52962;51.088;3.096;2023-04-22T11:43:06;100348.19;;;12.68;nan
66164;BME280;52962;51.088;3.096;2023-04-22T11:45:35;100346.47;;;12.87;nan
66164;BME280;52962;51.088;3.096;2023-04-22T11:48:05;100343.84;;;12.84;nan
66164;BME280;52962;51.088;3.096;2023-04-22T11:50:35;100337.66;;;12.84;nan
66164;BME280;52962;51.088;3.096;2023-04-22T11:53:11;100339.44;;;12.88;nan
66164;BME280;52962;51.088;3.096;2023-04-22T11:55:42;100342.91;;;12.74;nan
66164;BME280;52962;51.088;3.096;2023-04-22T11:58:12;100331.56;;;13.04;nan
66164;BME280;52962;51.088;3.096;2023-04-22T12:00:42;100341.25;;;13.08;nan
66164;BME280;52962;51.088;3.096;2023-04-22T12:03:12;100326.28;;;13.07;nan
66164;BME280;52962;51.088;3.096;2023-04-22T12:05:43;100338.59;;;13.05;nan
66164;BME280;52962;51.088;3.096;2023-04-22T12:08:14;100335.06;;;13.00;nan
66164;BME280;52962;51.088;3.096;2023-04-22T12:10:44;100342.97;;;12.88;nan
66164;BME280;52962;51.088;3.096;2023-04-22T12:13:17;100342.03;;;12.74;nan
66164;BME280;52962;51.088;3.096;2023-04-22T12:15:46;100348.19;;;12.70;nan
66164;BME280;52962;51.088;3.096;2023-04-22T12:18:15;100347.28;;;12.65;nan
66164;BME280;52962;51.088;3.096;2023-04-22T12:20:43;100350.81;;;12.70;nan
66164;BME280;52962;51.088;3.096;2023-04-22T12:23:13;100350.84;;;12.73;nan
66164;BME280;52962;51.088;3.096;2023-04-22T12:25:41;100352.56;;;12.68;nan
66164;BME280;52962;51.088;3.096;2023-04-22T12:28:11;100364.91;;;12.66;nan
66164;BME280;52962;51.088;3.096;2023-04-22T12:30:40;100375.47;;;12.66;nan
66164;BME280;52962;51.088;3.096;2023-04-22T12:33:08;100379.88;;;12.68;nan
66164;BME280;52962;51.088;3.096;2023-04-22T12:35:36;100377.25;;;12.70;nan
66164;BME280;52962;51.088;3.096;2023-04-22T12:38:04;100381.69;;;12.78;nan
66164;BME280;52962;51.088;3.096;2023-04-22T12:40:32;100371.97;;;12.73;nan
66164;BME280;52962;51.088;3.096;2023-04-22T12:43:00;100379.09;;;12.95;nan
66164;BME280;52962;51.088;3.096;2023-04-22T12:45:33;100381.78;;;13.06;nan
66164;BME280;52962;51.088;3.096;2023-04-22T12:48:01;100380.03;;;13.13;nan
66164;BME280;52962;51.088;3.096;2023-04-22T12:50:29;100388.84;;;13.08;nan
66164;BME280;52962;51.088;3.096;2023-04-22T12:52:58;100395.91;;;13.16;nan
66164;BME280;52962;51.088;3.096;2023-04-22T12:55:26;100382.69;;;13.13;nan
66164;BME280;52962;51.088;3.096;2023-04-22T12:57:54;100380.91;;;13.05;nan
66164;BME280;52962;51.088;3.096;2023-04-22T13:00:22;100387.09;;;13.15;nan
66164;BME280;52962;51.088;3.096;2023-04-22T13:02:52;100400.38;;;13.20;nan
66164;BME280;52962;51.088;3.096;2023-04-22T13:05:20;100399.50;;;13.30;nan
66164;BME280;52962;51.088;3.096;2023-04-22T13:07:48;100396.88;;;13.33;nan
66164;BME280;52962;51.088;3.096;2023-04-22T13:10:33;100398.66;;;13.51;nan
66164;BME280;52962;51.088;3.096;2023-04-22T13:13:01;100402.19;;;13.66;nan
66164;BME280;52962;51.088;3.096;2023-04-22T13:15:35;100398.66;;;13.70;nan
66164;BME280;52962;51.088;3.096;2023-04-22T13:18:04;100409.22;;;13.66;nan
66164;BME280;52962;51.088;3.096;2023-04-22T13:20:32;100403.94;;;13.61;nan
66164;BME280;52962;51.088;3.096;2023-04-22T13:23:01;100406.59;;;13.63;nan
66164;BME280;52962;51.088;3.096;2023-04-22T13:25:30;100404.84;;;13.85;nan
66164;BME280;52962;51.088;3.096;2023-04-22T13:27:58;100403.94;;;14.10;nan
66164;BME280;52962;51.088;3.096;2023-04-22T13:30:26;100404.81;;;14.15;nan
66164;BME280;52962;51.088;3.096;2023-04-22T13:32:54;100410.09;;;14.32;nan